Time;durP1;ratioP1;P1;durP2;ratioP2;P2;SDS_P1;SDS_P2;PMS_P1;PMS_P2;Temp;Humidity;BMP_temperature;BMP_pressure;BME280_temperature;BME280_humidity;BME280_pressure;Samples;Min_cycle;Max_cycle;Signal;HPM_P1;HPM_P2
2023/01/12 00:01:49;;;;;;;0.53;0.30;;;13.00;99.90;;;12.87;56.00;100813.47;4855776;28;99800;-59
2023/01/12 00:04:16;;;;;;;3.37;0.30;;;13.00;99.90;;;12.88;55.76;100809.91;4854118;28;101663;-59
2023/01/12 00:06:42;;;;;;;2.33;0.40;;;13.00;99.90;;;12.93;55.64;100826.47;4871431;28;100353;-60
2023/01/12 00:09:08;;;;;;;0.20;0.20;;;13.10;99.90;;;12.96;55.63;100808.66;4868432;28;102666;-59
2023/01/12 00:11:39;;;;;;;0.40;0.40;;;13.10;99.90;;;12.97;55.44;100805.06;4854715;28;97385;-62
2023/01/12 00:14:07;;;;;;;1.07;0.40;;;13.00;99.90;;;12.94;55.39;100821.09;4852730;28;97182;-62
2023/01/12 00:16:33;;;;;;;1.13;0.20;;;13.00;99.90;;;12.86;55.15;100809.94;4856828;28;97550;-61
2023/01/12 00:19:11;;;;;;;0.40;0.17;;;12.90;99.90;;;12.88;55.09;100812.56;4848812;28;99052;-60
2023/01/12 00:21:55;;;;;;;0.10;0.10;;;13.00;99.90;;;12.87;56.09;100802.88;4869375;28;99642;-62
2023/01/12 00:24:26;;;;;;;2.90;0.70;;;13.00;99.90;;;12.72;55.74;100799.94;4855622;28;100105;-59
2023/01/12 00:26:55;;;;;;;0.57;0.30;;;12.90;99.90;;;12.75;56.64;100817.50;4853491;28;97439;-61
2023/01/12 00:29:22;;;;;;;0.60;0.27;;;12.90;99.90;;;12.79;57.33;100806.72;4855520;28;97440;-61
2023/01/12 00:31:48;;;;;;;0.40;0.10;;;12.90;99.90;;;12.94;56.25;100828.19;4860300;28;97290;-62
2023/01/12 00:34:15;;;;;;;1.53;0.43;;;13.10;99.90;;;12.96;55.94;100839.56;4851906;28;97645;-61
2023/01/12 00:36:42;;;;;;;2.37;0.43;;;13.10;99.90;;;12.95;55.59;100812.22;4855150;28;99741;-62
2023/01/12 00:39:08;;;;;;;1.83;0.43;;;13.10;99.90;;;12.98;56.50;100816.50;4853788;28;97516;-62
2023/01/12 00:47:07;;;;;;;0.23;0.20;;;13.00;99.90;;;12.95;56.00;100836.06;4851377;28;100153;-61
2023/01/12 00:49:35;;;;;;;2.87;0.40;;;13.00;99.90;;;13.05;56.21;100818.84;4857173;28;99296;-62
2023/01/12 00:52:00;;;;;;;0.20;0.20;;;13.20;99.90;;;13.01;56.05;100821.69;4851522;28;97505;-60
2023/01/12 00:54:26;;;;;;;1.03;0.30;;;13.20;99.90;;;13.05;55.99;100823.28;4859070;28;107976;-60
2023/01/12 00:56:52;;;;;;;0.10;0.10;;;13.20;99.90;;;12.99;56.04;100813.81;4852832;28;101822;-61
2023/01/12 00:59:18;;;;;;;0.00;0.00;;;13.20;99.90;;;13.05;56.38;100802.09;4855364;28;109193;-57
2023/01/12 01:01:44;;;;;;;0.40;0.23;;;13.10;99.90;;;12.93;56.36;100807.91;4874224;28;98754;-62
2023/01/12 01:04:09;;;;;;;0.00;0.00;;;13.00;99.90;;;12.90;57.12;100813.34;4852937;28;100548;-57
2023/01/12 01:06:39;;;;;;;0.50;0.20;;;13.10;99.90;;;12.97;56.83;100820.09;4858909;28;100189;-58
2023/01/12 01:09:06;;;;;;;0.20;0.20;;;13.10;99.90;;;12.97;56.73;100815.66;4854878;28;100913;-61
2023/01/12 01:11:33;;;;;;;0.73;0.50;;;13.20;99.90;;;12.93;56.65;100807.91;4860583;28;97322;-58
2023/01/12 01:13:59;;;;;;;1.93;0.40;;;13.10;99.90;;;12.99;56.25;100800.56;4855059;28;98611;-58
2023/01/12 01:16:25;;;;;;;3.30;0.53;;;13.10;99.90;;;13.05;56.50;100810.03;4855374;28;98081;-58
2023/01/12 01:18:51;;;;;;;3.20;0.10;;;13.20;99.90;;;12.99;57.06;100807.66;4861115;28;100569;-62
2023/01/12 01:21:17;;;;;;;1.90;0.20;;;13.20;99.90;;;12.93;56.98;100802.63;4854762;28;98234;-59
2023/01/12 01:23:44;;;;;;;0.30;0.10;;;13.10;99.90;;;12.95;56.84;100806.06;4854870;28;98586;-57
2023/01/12 01:26:14;;;;;;;0.67;0.27;;;13.10;99.90;;;12.97;57.37;100804.22;4854945;28;100135;-62
2023/01/12 01:28:41;;;;;;;2.93;0.20;;;13.10;99.90;;;12.97;56.76;100809.50;4860023;28;97530;-61
2023/01/12 01:31:13;;;;;;;6.03;0.40;;;13.10;99.90;;;13.00;56.93;100809.38;4854065;28;97511;-62
2023/01/12 01:33:39;;;;;;;0.20;0.10;;;13.10;99.90;;;12.93;57.43;100802.63;4858379;28;97136;-60
2023/01/12 01:36:06;;;;;;;1.50;0.33;;;13.00;99.90;;;12.93;57.04;100802.63;4852970;28;97943;-59
2023/01/12 01:38:32;;;;;;;2.10;0.20;;;13.00;99.90;;;12.93;57.15;100802.63;4857052;28;97564;-60
2023/01/12 01:40:59;;;;;;;2.30;0.20;;;13.00;99.90;;;13.00;57.72;100796.13;4854899;28;101448;-62
2023/01/12 01:43:26;;;;;;;5.50;0.23;;;13.10;99.90;;;12.91;56.72;100783.31;4857945;28;97816;-60
2023/01/12 01:46:07;;;;;;;3.20;0.83;;;13.00;99.90;;;12.90;57.39;100797.47;4852022;28;99495;-62
2023/01/12 01:48:38;;;;;;;0.70;0.40;;;13.00;99.90;;;12.82;57.15;100782.75;4852864;28;102506;-58
2023/01/12 01:51:09;;;;;;;0.77;0.10;;;13.00;99.90;;;12.88;57.13;100794.88;4851552;28;100112;-58
2023/01/12 01:53:39;;;;;;;4.53;0.63;;;13.00;99.90;;;12.94;56.99;100791.09;4854430;28;97583;-59
2023/01/12 01:56:13;;;;;;;2.10;0.50;;;13.00;99.90;;;12.98;57.73;100780.31;4851736;28;99581;-62
2023/01/12 01:59:09;;;;;;;2.10;0.50;;;13.10;99.90;;;12.95;57.34;100780.44;4843320;28;97517;-61
2023/01/12 02:01:36;;;;;;;2.13;0.63;;;13.10;99.90;;;12.85;56.99;100783.56;4856619;28;102433;-62
2023/01/12 02:04:03;;;;;;;0.33;0.30;;;13.00;99.90;;;12.86;57.83;100777.31;4854516;28;101715;-56
2023/01/12 02:06:30;;;;;;;0.10;0.10;;;13.00;99.90;;;12.93;57.01;100762.91;4857381;28;97412;-61
2023/01/12 02:09:14;;;;;;;1.50;0.13;;;13.00;99.90;;;12.95;57.25;100763.72;4853849;28;97463;-59
2023/01/12 02:17:50;;;;;;;2.70;0.37;;;13.00;99.90;;;12.93;57.09;100745.25;4854594;28;100121;-60
2023/01/12 02:20:41;;;;;;;3.03;0.40;;;13.00;99.90;;;12.95;57.02;100737.22;4868340;28;97302;-61
2023/01/12 02:23:25;;;;;;;7.10;0.67;;;12.90;99.90;;;12.97;56.16;100740.66;4852608;28;104455;-60
2023/01/12 02:26:30;;;;;;;1.10;0.37;;;13.10;99.90;;;13.07;56.86;100731.41;4855689;28;98106;-58
2023/01/12 02:29:05;;;;;;;1.50;0.27;;;13.10;99.90;;;13.04;55.94;100731.53;4850033;28;100502;-61
2023/01/12 02:32:13;;;;;;;2.90;0.27;;;13.10;99.90;;;13.10;55.92;100736.53;4858669;28;97547;-59
2023/01/12 02:34:57;;;;;;;0.40;0.10;;;13.10;99.90;;;13.06;55.81;100722.59;4852585;28;100774;-61
2023/01/12 02:38:10;;;;;;;0.63;0.20;;;13.10;99.90;;;13.12;56.30;100713.50;4853434;28;97770;-56
2023/01/12 02:41:07;;;;;;;6.93;0.80;;;13.10;99.90;;;13.17;55.59;100727.41;4847207;28;101481;-61
2023/01/12 02:43:35;;;;;;;3.67;0.20;;;13.20;99.90;;;13.16;56.28;100720.38;4854851;28;101804;-62
2023/01/12 02:46:27;;;;;;;0.57;0.27;;;13.20;99.90;;;13.21;56.88;100715.78;4851496;28;97682;-62
2023/01/12 02:48:57;;;;;;;0.63;0.10;;;13.20;99.90;;;13.20;55.06;100723.78;4852744;28;98344;-57
2023/01/12 02:51:56;;;;;;;3.40;0.30;;;13.30;99.90;;;13.16;55.58;100715.06;4860065;28;97978;-59
2023/01/12 02:54:24;;;;;;;3.00;0.50;;;13.30;99.90;;;13.14;55.25;100706.34;4855194;28;101070;-56
2023/01/12 02:56:54;;;;;;;0.40;0.40;;;13.20;99.90;;;13.17;55.49;100715.97;4864957;28;97960;-56
2023/01/12 02:59:27;;;;;;;0.87;0.27;;;13.20;99.90;;;13.17;55.15;100706.22;4862410;28;103991;-55
2023/01/12 03:02:08;;;;;;;0.70;0.33;;;13.20;99.90;;;13.16;55.38;100703.63;4861549;28;102521;-57
2023/01/12 03:04:34;;;;;;;1.00;0.23;;;13.20;99.90;;;13.06;55.33;100696.09;4864305;28;97704;-56
2023/01/12 03:07:00;;;;;;;1.40;0.60;;;13.10;99.90;;;13.11;55.49;100701.19;4858989;28;98011;-61
2023/01/12 03:09:38;;;;;;;4.43;0.90;;;13.10;99.90;;;13.15;56.25;100692.16;4859774;28;100628;-56
2023/01/12 03:12:12;;;;;;;0.50;0.33;;;13.20;99.90;;;13.18;56.84;100696.50;4857793;28;100207;-57
2023/01/12 03:14:43;;;;;;;1.73;0.40;;;13.30;99.90;;;13.19;57.25;100693.78;4862605;28;101310;-58
2023/01/12 03:17:45;;;;;;;0.97;0.30;;;13.30;99.90;;;13.19;57.28;100692.94;4856374;28;97460;-58
2023/01/12 03:20:24;;;;;;;1.70;0.30;;;13.20;99.90;;;13.25;57.33;100692.66;4852300;28;101542;-61
2023/01/12 03:22:57;;;;;;;2.93;0.23;;;13.20;99.90;;;13.18;58.40;100676.19;4859378;28;102004;-60
2023/01/12 03:25:25;;;;;;;0.00;0.00;;;13.20;99.90;;;13.11;58.91;100685.28;4857648;28;101261;-62
2023/01/12 03:27:57;;;;;;;1.80;0.40;;;13.10;99.90;;;13.11;58.45;100677.34;4878823;28;97361;-60
2023/01/12 03:30:36;;;;;;;1.60;0.20;;;13.10;99.90;;;13.00;59.28;100663.72;4912471;28;97119;-61
2023/01/12 03:33:06;;;;;;;0.87;0.30;;;13.00;99.90;;;12.92;59.90;100679.13;4899178;28;100467;-61
2023/01/12 03:35:55;;;;;;;1.43;0.73;;;12.90;99.90;;;12.82;59.91;100674.22;4896308;28;97188;-60
2023/01/12 03:38:41;;;;;;;0.63;0.30;;;12.90;99.90;;;12.87;59.30;100665.22;4899309;28;98129;-60
2023/01/12 03:41:18;;;;;;;2.93;0.20;;;12.90;99.90;;;12.91;59.54;100657.09;4896853;28;97475;-59
2023/01/12 03:43:49;;;;;;;1.57;0.30;;;12.90;99.90;;;12.88;59.54;100672.25;4895921;28;98957;-61
2023/01/12 03:46:32;;;;;;;0.30;0.10;;;12.90;99.90;;;12.88;59.80;100651.94;4879803;28;97478;-59
2023/01/12 03:49:29;;;;;;;0.33;0.20;;;12.90;99.90;;;12.85;60.09;100656.47;4888782;28;97387;-58
2023/01/12 03:51:58;;;;;;;1.97;0.30;;;12.90;99.90;;;12.76;60.61;100648.03;4892765;28;97422;-54
2023/01/12 03:54:26;;;;;;;2.13;0.23;;;12.80;99.90;;;12.71;60.93;100650.03;4894035;28;97511;-60
2023/01/12 03:56:53;;;;;;;0.37;0.33;;;12.70;99.90;;;12.70;61.73;100643.00;4894492;28;96928;-58
2023/01/12 03:59:21;;;;;;;0.20;0.10;;;12.70;99.90;;;12.69;61.69;100646.59;4892274;28;97911;-59
2023/01/12 04:01:47;;;;;;;2.90;0.50;;;12.70;99.90;;;12.71;61.05;100639.44;4893401;28;104111;-59
2023/01/12 04:04:14;;;;;;;0.87;0.40;;;12.70;99.90;;;12.75;61.52;100630.44;4892875;28;99468;-59
2023/01/12 04:06:40;;;;;;;1.57;0.30;;;12.70;99.90;;;12.74;61.17;100628.72;4896502;28;97264;-60
2023/01/12 04:09:06;;;;;;;0.40;0.30;;;12.70;99.90;;;12.63;61.94;100633.63;4893124;28;112158;-59
2023/01/12 04:14:16;;;;;;;0.20;0.20;;;12.60;99.90;;;12.48;61.88;100636.97;4892426;28;97526;-56
2023/01/12 04:16:41;;;;;;;2.40;0.30;;;12.50;99.90;;;12.50;61.59;100624.53;4898890;28;97304;-60
2023/01/12 04:19:07;;;;;;;0.27;0.07;;;12.50;99.90;;;12.48;61.59;100616.66;4901149;28;99730;-55
2023/01/12 04:24:17;;;;;;;0.00;0.00;;;12.50;99.90;;;12.48;61.84;100611.38;4897928;28;97364;-59
2023/01/12 04:26:43;;;;;;;0.40;0.20;;;12.50;99.90;;;12.47;61.91;100611.44;4895731;28;99354;-55
2023/01/12 04:29:09;;;;;;;1.50;0.10;;;12.50;99.90;;;12.48;61.33;100610.50;4897050;28;97657;-58
2023/01/12 04:31:34;;;;;;;1.50;0.33;;;12.50;99.90;;;12.43;61.83;100613.34;4896287;28;97068;-61
2023/01/12 04:34:00;;;;;;;0.73;0.40;;;12.50;99.90;;;12.47;61.66;100599.06;4890793;28;98453;-57
2023/01/12 04:36:26;;;;;;;0.13;0.13;;;12.50;99.90;;;12.51;60.91;100599.78;4891182;28;97081;-57
2023/01/12 04:38:52;;;;;;;0.87;0.13;;;12.50;99.90;;;12.57;61.11;100604.78;4893748;28;97583;-55
2023/01/12 04:41:18;;;;;;;0.63;0.30;;;12.60;99.90;;;12.54;61.16;100604.94;4886912;28;109797;-58
2023/01/12 04:43:45;;;;;;;0.80;0.00;;;12.60;99.90;;;12.53;61.51;100603.22;4900324;28;103357;-59
2023/01/12 04:46:11;;;;;;;2.20;0.40;;;12.60;99.90;;;12.59;61.67;100597.66;4894362;28;106622;-55
2023/01/12 04:48:38;;;;;;;0.50;0.20;;;12.60;99.90;;;12.59;61.03;100596.81;4890567;28;97306;-57
2023/01/12 04:51:04;;;;;;;2.27;0.30;;;12.60;99.90;;;12.63;62.03;100583.34;4888646;28;97373;-55
2023/01/12 04:53:30;;;;;;;0.47;0.20;;;12.60;99.90;;;12.62;61.73;100581.66;4896906;28;98792;-56
2023/01/12 04:55:56;;;;;;;0.00;0.00;;;12.60;99.90;;;12.58;62.02;100569.47;4890455;28;97253;-54
2023/01/12 04:58:22;;;;;;;3.00;0.47;;;12.60;99.90;;;12.61;62.33;100571.13;4891924;28;98232;-57
2023/01/12 05:00:48;;;;;;;0.03;0.00;;;12.60;99.90;;;12.61;62.66;100568.50;4892877;28;99783;-58
2023/01/12 05:03:15;;;;;;;0.30;0.10;;;12.60;99.90;;;12.55;63.56;100561.66;4891805;28;110763;-55
2023/01/12 05:05:41;;;;;;;1.97;0.27;;;12.60;99.90;;;12.45;63.48;100555.94;4890821;28;97299;-62
2023/01/12 05:10:58;;;;;;;0.10;0.00;;;12.50;99.90;;;12.48;64.31;100553.16;4897073;28;102886;-59
2023/01/12 05:13:29;;;;;;;0.10;0.10;;;12.50;99.90;;;12.42;64.00;100539.34;4887677;28;103223;-57
2023/01/12 05:15:55;;;;;;;0.60;0.10;;;12.40;99.90;;;12.39;64.38;100537.69;4889645;28;97691;-56
2023/01/12 05:18:22;;;;;;;0.23;0.23;;;12.40;99.90;;;12.42;64.66;100521.69;4893915;28;108325;-58
2023/01/12 05:20:47;;;;;;;2.60;0.47;;;12.40;99.90;;;12.44;64.56;100519.84;4895730;28;100470;-58
2023/01/12 05:23:13;;;;;;;0.00;0.00;;;12.50;99.90;;;12.51;64.04;100509.81;4894661;28;99553;-55
2023/01/12 05:25:39;;;;;;;0.33;0.03;;;12.50;99.90;;;12.43;64.66;100512.81;4888063;28;97234;-57
2023/01/12 05:28:05;;;;;;;0.10;0.10;;;12.50;99.90;;;12.33;64.63;100510.66;4898896;28;117278;-61
2023/01/12 05:30:30;;;;;;;0.20;0.10;;;12.40;99.90;;;12.37;64.94;100504.31;4889862;28;96805;-60
2023/01/12 05:32:56;;;;;;;0.00;0.00;;;12.40;99.90;;;12.34;65.29;100507.09;4881174;28;110454;-58
2023/01/12 05:35:22;;;;;;;1.40;0.10;;;12.30;99.90;;;12.27;65.26;100501.22;4894092;28;98964;-59
2023/01/12 05:37:48;;;;;;;1.07;0.33;;;12.20;99.90;;;12.34;65.85;100496.53;4896186;28;103142;-59
2023/01/12 05:40:14;;;;;;;0.47;0.17;;;12.30;99.90;;;12.32;65.91;100504.53;4893964;28;97556;-55
2023/01/12 05:45:25;;;;;;;6.23;0.47;;;12.30;99.90;;;12.24;65.44;100496.06;4890002;28;101098;-57
2023/01/12 05:47:59;;;;;;;0.10;0.03;;;12.20;99.90;;;12.20;66.31;100495.34;4897324;28;97857;-60
2023/01/12 05:50:25;;;;;;;0.37;0.37;;;12.10;99.90;;;12.19;67.33;100487.50;4882306;28;98409;-57
2023/01/12 05:52:51;;;;;;;3.10;0.37;;;12.10;99.90;;;12.17;67.22;100479.63;4891994;28;97502;-59
2023/01/12 05:55:17;;;;;;;0.33;0.10;;;12.20;99.90;;;12.17;67.36;100474.34;4885475;28;97249;-56
2023/01/12 05:57:43;;;;;;;1.73;0.30;;;12.10;99.90;;;12.18;67.53;100473.41;4904725;28;101126;-57
2023/01/12 06:00:10;;;;;;;2.93;0.20;;;12.20;99.90;;;12.13;67.81;100456.88;4890954;28;97272;-57
2023/01/12 06:02:36;;;;;;;0.40;0.10;;;12.10;99.90;;;12.10;67.72;100462.31;4898062;28;100814;-58
2023/01/12 06:05:03;;;;;;;0.47;0.47;;;12.10;99.90;;;12.03;68.21;100460.88;4882695;28;120302;-56
2023/01/12 06:07:29;;;;;;;0.57;0.20;;;12.00;99.90;;;11.98;68.07;100462.84;4892323;28;97127;-61
2023/01/12 06:09:55;;;;;;;0.23;0.10;;;12.00;99.90;;;12.02;67.14;100453.88;4885149;28;97011;-62
2023/01/12 06:15:06;;;;;;;0.83;0.20;;;12.00;99.90;;;11.97;67.99;100445.28;4891068;28;99798;-60
2023/01/12 06:17:32;;;;;;;2.43;0.20;;;12.00;99.90;;;11.92;68.29;100447.28;4898148;28;97210;-62
2023/01/12 06:19:58;;;;;;;0.30;0.20;;;11.90;99.90;;;11.95;67.88;100439.19;4884145;28;99276;-57
2023/01/12 06:22:26;;;;;;;0.07;0.00;;;11.90;99.90;;;11.87;66.85;100444.00;4894246;28;98467;-58
2023/01/12 06:24:53;;;;;;;0.10;0.10;;;11.90;99.90;;;11.88;66.98;100445.72;4912509;28;97353;-59
2023/01/12 06:27:19;;;;;;;0.73;0.20;;;11.90;99.90;;;11.86;68.07;100431.66;4898135;28;98731;-60
2023/01/12 06:29:45;;;;;;;1.30;0.00;;;11.90;99.90;;;11.87;66.78;100436.06;4897007;28;96636;-59
2023/01/12 06:32:11;;;;;;;0.97;0.23;;;11.90;99.90;;;11.88;67.29;100432.50;4897448;28;97208;-61
2023/01/12 06:34:37;;;;;;;1.13;0.27;;;11.90;99.90;;;11.83;67.73;100437.09;4902700;28;98767;-60
2023/01/12 06:37:03;;;;;;;0.00;0.00;;;11.90;99.90;;;11.85;67.71;100435.25;4885794;28;108531;-61
2023/01/12 06:39:30;;;;;;;0.00;0.00;;;11.90;99.90;;;11.87;67.60;100433.41;4895040;28;97173;-61
2023/01/12 06:44:40;;;;;;;0.10;0.10;;;11.90;99.90;;;11.87;67.91;100425.50;4901762;28;97524;-60
2023/01/12 06:47:06;;;;;;;0.37;0.37;;;11.90;99.90;;;11.84;68.12;100428.25;4905119;28;97151;-60
2023/01/12 06:49:32;;;;;;;0.40;0.13;;;11.90;99.90;;;11.87;67.27;100412.28;4901953;28;100871;-59
2023/01/12 06:51:58;;;;;;;1.17;0.20;;;11.90;99.90;;;11.85;67.81;100414.09;4895723;28;113798;-61
2023/01/12 06:54:23;;;;;;;0.83;0.20;;;11.90;99.90;;;11.88;67.52;100408.72;4900432;28;98278;-60
2023/01/12 06:56:49;;;;;;;0.00;0.00;;;11.90;99.90;;;11.91;67.33;100409.41;4898627;28;97122;-58
2023/01/12 06:59:15;;;;;;;0.20;0.10;;;12.00;99.90;;;11.88;67.82;100399.00;4894400;28;97610;-60
2023/01/12 07:01:41;;;;;;;0.30;0.10;;;11.90;99.90;;;11.87;67.42;100391.13;4890464;28;97861;-61
2023/01/12 07:04:07;;;;;;;0.77;0.20;;;11.90;99.90;;;11.88;67.92;100398.13;4899898;28;97050;-62
2023/01/12 07:06:33;;;;;;;0.10;0.10;;;11.90;99.90;;;11.81;67.98;100391.38;4898366;28;97586;-59
2023/01/12 07:08:59;;;;;;;3.40;0.30;;;11.90;99.90;;;11.82;67.71;100393.09;4897621;28;99200;-59
2023/01/12 07:11:25;;;;;;;0.37;0.10;;;11.80;99.90;;;11.88;67.41;100392.84;4891558;28;99046;-58
2023/01/12 07:13:51;;;;;;;0.00;0.00;;;11.90;99.90;;;11.96;66.77;100382.75;4901381;28;101833;-59
2023/01/12 07:16:16;;;;;;;0.60;0.20;;;11.90;99.90;;;11.91;68.10;100387.41;4891642;28;97984;-56
2023/01/12 07:18:42;;;;;;;0.73;0.20;;;11.90;99.90;;;11.88;68.36;100382.28;4914696;28;97341;-59
2023/01/12 07:21:12;;;;;;;0.57;0.53;;;11.90;99.90;;;11.88;67.09;100383.13;4895043;28;98036;-59
2023/01/12 07:23:40;;;;;;;0.20;0.10;;;11.90;99.90;;;11.90;67.71;100388.34;4903454;28;98895;-57
2023/01/12 07:26:06;;;;;;;0.10;0.10;;;11.90;99.90;;;11.89;69.01;100384.00;4888103;28;97079;-58
2023/01/12 07:28:33;;;;;;;0.00;0.00;;;11.90;99.90;;;11.93;67.07;100385.56;4908167;28;97244;-54
2023/01/12 07:31:04;;;;;;;0.73;0.20;;;11.90;99.90;;;11.92;68.50;100383.84;4898306;28;98531;-54
2023/01/12 07:33:31;;;;;;;0.00;0.00;;;11.90;99.90;;;11.98;67.53;100378.25;4896223;28;99839;-54
2023/01/12 07:36:00;;;;;;;0.00;0.00;;;11.90;99.90;;;12.02;67.63;100397.50;4881525;28;97481;-54
2023/01/12 07:38:28;;;;;;;0.20;0.07;;;12.00;99.90;;;12.06;67.11;100386.72;4881698;28;97399;-56
2023/01/12 07:40:58;;;;;;;1.20;0.17;;;12.00;99.90;;;12.03;68.66;100394.78;4896951;28;97159;-56
2023/01/12 07:43:24;;;;;;;0.10;0.10;;;12.00;99.90;;;12.21;66.49;100386.00;4896361;28;99469;-54
2023/01/12 07:45:50;;;;;;;0.17;0.07;;;12.20;99.90;;;12.21;67.48;100391.28;4892977;28;97077;-53
2023/01/12 07:48:16;;;;;;;0.10;0.10;;;12.20;99.90;;;12.32;67.76;100387.28;4890692;28;98058;-55
2023/01/12 07:50:41;;;;;;;0.60;0.10;;;12.30;99.90;;;12.31;66.99;100385.59;4901079;28;97214;-56
2023/01/12 07:53:07;;;;;;;0.40;0.20;;;12.30;99.90;;;12.32;67.25;100372.28;4894178;28;99356;-55
2023/01/12 07:55:33;;;;;;;0.73;0.20;;;12.30;99.90;;;12.43;65.52;100380.53;4892308;28;107663;-56
2023/01/12 07:58:02;;;;;;;0.23;0.17;;;12.50;99.90;;;12.55;66.10;100373.81;4894386;28;97231;-56
2023/01/12 08:00:29;;;;;;;0.10;0.10;;;12.60;99.90;;;12.69;65.89;100391.66;4902030;28;97957;-53
2023/01/12 08:03:10;;;;;;;0.67;0.27;;;12.80;99.90;;;12.66;66.44;100376.81;4886691;28;98262;-55
2023/01/12 08:05:37;;;;;;;4.60;0.10;;;12.80;99.90;;;12.53;66.57;100391.56;4899841;28;97295;-53
2023/01/12 08:08:05;;;;;;;0.23;0.20;;;12.60;99.90;;;12.36;67.70;100383.56;4891598;28;96771;-54
2023/01/12 08:10:31;;;;;;;0.77;0.40;;;12.40;99.90;;;12.48;67.28;100390.94;4879832;28;101502;-52
2023/01/12 08:12:57;;;;;;;1.40;0.17;;;12.50;99.90;;;12.43;67.05;100385.84;4897246;28;99744;-54
2023/01/12 08:15:24;;;;;;;0.30;0.13;;;12.60;99.90;;;12.62;65.41;100383.19;4897795;28;97794;-53
2023/01/12 08:18:06;;;;;;;0.13;0.03;;;12.80;99.90;;;12.74;65.66;100384.38;4899422;28;97431;-55
2023/01/12 08:20:37;;;;;;;0.00;0.00;;;12.90;99.90;;;12.80;65.41;100384.94;4879327;28;104152;-53
2023/01/12 08:23:20;;;;;;;0.23;0.20;;;13.00;99.90;;;12.69;66.55;100371.34;4903447;28;98978;-55
2023/01/12 08:25:55;;;;;;;0.43;0.10;;;12.90;99.90;;;12.72;65.98;100392.38;4901180;28;97204;-54
2023/01/12 08:28:28;;;;;;;5.23;0.40;;;12.80;99.90;;;12.70;65.78;100394.25;4903768;28;97734;-53
2023/01/12 08:30:53;;;;;;;0.60;0.00;;;12.80;99.90;;;12.74;64.97;100401.13;4885359;28;99509;-59
2023/01/12 08:33:20;;;;;;;0.00;0.00;;;12.90;99.90;;;12.87;64.86;100379.31;4898415;28;97694;-54
2023/01/12 08:35:46;;;;;;;0.10;0.10;;;13.00;99.90;;;12.85;65.45;100386.50;4903283;28;97250;-51
2023/01/12 08:38:13;;;;;;;0.90;0.20;;;12.90;99.90;;;12.85;65.37;100391.78;4896226;28;97384;-49
2023/01/12 08:46:08;;;;;;;0.10;0.00;;;13.00;99.90;;;12.89;65.77;100388.06;4889020;28;97430;-53
2023/01/12 08:48:35;;;;;;;0.00;0.00;;;13.00;99.90;;;12.75;66.10;100383.47;4900210;28;101055;-51
2023/01/12 08:51:03;;;;;;;0.20;0.10;;;12.90;99.90;;;12.73;66.60;100394.13;4899474;28;97566;-55
2023/01/12 08:53:28;;;;;;;5.50;0.20;;;12.80;99.90;;;12.72;67.16;100392.38;4896850;28;97735;-53
2023/01/12 08:55:54;;;;;;;1.10;0.37;;;12.80;99.90;;;12.65;66.53;100390.97;4893344;28;97721;-56
2023/01/12 08:58:20;;;;;;;2.70;0.20;;;12.80;99.90;;;12.63;66.42;100387.53;4894577;28;101587;-50
2023/01/12 09:00:46;;;;;;;0.00;0.00;;;12.80;99.90;;;12.77;65.27;100416.84;4900899;28;98047;-57
2023/01/12 09:03:12;;;;;;;0.33;0.10;;;12.90;99.90;;;12.86;64.64;100396.13;4895670;28;97294;-51
2023/01/12 09:05:37;;;;;;;0.50;0.10;;;13.00;99.90;;;12.86;65.05;100393.50;4894649;28;97486;-55
2023/01/12 09:08:03;;;;;;;0.30;0.00;;;13.10;99.90;;;12.81;65.96;100388.44;4892764;28;112790;-54
2023/01/12 09:10:29;;;;;;;0.10;0.07;;;13.00;99.90;;;12.74;66.38;100395.84;4896135;28;97412;-57
2023/01/12 09:12:55;;;;;;;0.03;0.00;;;12.90;99.90;;;12.89;65.08;100398.66;4895006;28;108970;-54
2023/01/12 09:15:21;;;;;;;2.73;0.30;;;13.10;99.90;;;12.89;65.66;100406.59;4900698;28;96986;-51
2023/01/12 09:17:54;;;;;;;0.33;0.00;;;13.10;99.90;;;12.98;64.47;100403.47;4896875;28;101031;-54
2023/01/12 09:20:20;;;;;;;1.50;0.23;;;13.20;99.90;;;13.06;64.71;100422.50;4889136;28;101858;-56
2023/01/12 09:22:46;;;;;;;1.10;0.00;;;13.30;99.90;;;13.00;65.14;100406.91;4895445;28;97768;-54
2023/01/12 09:25:12;;;;;;;0.00;0.00;;;13.20;99.90;;;13.14;63.57;100403.56;4892893;28;97489;-53
2023/01/12 09:27:38;;;;;;;0.03;0.00;;;13.40;99.90;;;13.22;63.44;100412.03;4893817;28;97579;-56
2023/01/12 09:30:05;;;;;;;0.00;0.00;;;13.40;99.90;;;13.19;64.89;100417.50;4891247;28;104177;-55
2023/01/12 09:32:31;;;;;;;0.60;0.10;;;13.40;99.90;;;13.20;63.80;100421.84;4894952;28;97556;-53
2023/01/12 09:34:58;;;;;;;0.00;0.00;;;13.40;99.90;;;13.28;64.22;100423.16;4891766;28;97324;-54
2023/01/12 09:37:25;;;;;;;0.83;0.63;;;13.50;99.90;;;13.19;64.71;100418.34;4899301;28;97312;-54
2023/01/12 09:39:50;;;;;;;0.83;0.00;;;13.40;99.90;;;13.11;64.56;100409.88;4896598;28;98114;-53
2023/01/12 09:48:09;;;;;;;0.00;0.00;;;13.40;99.90;;;13.28;64.30;100432.91;4896320;28;97276;-53
2023/01/12 09:50:50;;;;;;;0.10;0.10;;;13.40;99.90;;;13.33;64.57;100423.81;4880090;28;98573;-53
2023/01/12 09:53:30;;;;;;;0.87;0.30;;;13.50;99.90;;;13.23;64.83;100437.59;4890828;28;97143;-53
2023/01/12 09:56:07;;;;;;;0.57;0.20;;;13.40;99.90;;;13.14;65.47;100441.50;4896727;28;97367;-51
2023/01/12 09:58:54;;;;;;;0.00;0.00;;;13.30;99.90;;;13.28;63.26;100449.66;4901181;28;97270;-51
2023/01/12 10:01:21;;;;;;;0.10;0.00;;;13.40;99.90;;;13.28;64.94;100449.66;4892948;28;104022;-55
2023/01/12 10:03:47;;;;;;;0.00;0.00;;;13.40;99.90;;;13.28;65.00;100441.72;4891307;28;117633;-53
2023/01/12 10:06:18;;;;;;;0.00;0.00;;;13.40;99.90;;;13.25;65.16;100444.50;4891903;28;111767;-55
2023/01/12 10:08:54;;;;;;;0.10;0.00;;;13.50;99.90;;;13.15;65.46;100445.88;4892848;28;96901;-54
2023/01/12 10:11:32;;;;;;;0.00;0.00;;;13.40;99.90;;;13.06;66.23;100449.84;4897312;28;101814;-53
2023/01/12 10:14:33;;;;;;;0.00;0.00;;;13.20;99.90;;;13.15;65.76;100451.16;4887947;28;97288;-53
2023/01/12 10:17:47;;;;;;;0.20;0.10;;;13.30;99.90;;;13.05;66.00;100448.13;4890003;28;97414;-49
2023/01/12 10:20:39;;;;;;;0.27;0.10;;;13.20;99.90;;;12.99;66.45;100450.19;4888835;28;99540;-55
2023/01/12 10:23:08;;;;;;;0.60;0.00;;;13.10;99.90;;;13.00;65.76;100446.63;4884054;28;98354;-53
2023/01/12 10:25:44;;;;;;;0.00;0.00;;;13.20;99.90;;;13.04;64.99;100450.84;4893893;28;97067;-56
2023/01/12 10:28:25;;;;;;;0.00;0.00;;;13.10;99.90;;;13.14;65.21;100449.44;4892221;28;97623;-53
2023/01/12 10:30:52;;;;;;;0.10;0.10;;;13.30;99.90;;;13.16;65.86;100454.66;4900689;28;97303;-54
2023/01/12 10:33:26;;;;;;;0.20;0.10;;;13.40;99.90;;;13.17;65.47;100451.97;4892131;28;99234;-51
2023/01/12 10:36:18;;;;;;;1.07;0.10;;;13.30;99.90;;;13.14;66.18;100441.50;4897876;28;96827;-54
2023/01/12 10:39:02;;;;;;;0.83;0.00;;;13.30;99.90;;;13.16;66.18;100452.88;4893089;28;100699;-51
2023/01/12 10:41:37;;;;;;;0.00;0.00;;;13.30;99.90;;;13.16;65.70;100459.97;4894689;28;100681;-54
2023/01/12 10:44:13;;;;;;;0.30;0.10;;;13.30;99.90;;;13.18;64.87;100443.13;4894380;28;97628;-50
2023/01/12 10:46:39;;;;;;;0.00;0.00;;;13.30;99.90;;;13.27;65.66;100461.19;4888814;28;97447;-53
2023/01/12 10:49:22;;;;;;;0.13;0.00;;;13.50;99.90;;;13.22;65.81;100457.06;4889329;28;114396;-53
2023/01/12 10:51:57;;;;;;;2.03;0.00;;;13.40;99.90;;;13.21;64.35;100456.22;4892023;28;97739;-50
2023/01/12 10:54:37;;;;;;;1.23;0.20;;;13.40;99.90;;;13.23;64.33;100446.38;4887970;28;104014;-54
2023/01/12 10:57:15;;;;;;;0.10;0.00;;;13.40;99.90;;;13.22;64.58;100455.28;4888628;28;100152;-52
2023/01/12 10:59:51;;;;;;;0.13;0.10;;;13.50;99.90;;;13.27;64.80;100447.09;4891100;28;97293;-50
2023/01/12 11:02:17;;;;;;;0.10;0.10;;;13.40;99.90;;;13.27;65.06;100447.94;4893597;28;97660;-50
2023/01/12 11:04:53;;;;;;;0.73;0.00;;;13.50;99.90;;;13.28;65.05;100449.66;4896647;28;99433;-50